sensor_id;sensor_type;location;lat;lon;timestamp;temperature;humidity
15749;DHT22;7976;52.526;13.326;2024-01-06T00:01:10;2.00;99.90
15749;DHT22;7976;52.526;13.326;2024-01-06T00:03:38;2.00;99.90
15749;DHT22;7976;52.526;13.326;2024-01-06T00:06:05;2.00;99.90
15749;DHT22;7976;52.526;13.326;2024-01-06T00:08:33;2.00;99.90
15749;DHT22;7976;52.526;13.326;2024-01-06T00:11:01;2.00;99.90
15749;DHT22;7976;52.526;13.326;2024-01-06T00:13:29;2.10;99.90
15749;DHT22;7976;52.526;13.326;2024-01-06T00:15:56;2.10;99.90
15749;DHT22;7976;52.526;13.326;2024-01-06T00:18:23;2.10;99.90
15749;DHT22;7976;52.526;13.326;2024-01-06T00:20:50;2.10;99.90
15749;DHT22;7976;52.526;13.326;2024-01-06T00:23:17;2.10;99.90
15749;DHT22;7976;52.526;13.326;2024-01-06T00:25:43;2.00;99.90
15749;DHT22;7976;52.526;13.326;2024-01-06T00:28:12;2.00;99.90
15749;DHT22;7976;52.526;13.326;2024-01-06T00:30:38;2.00;99.90
15749;DHT22;7976;52.526;13.326;2024-01-06T00:33:05;2.10;99.90
15749;DHT22;7976;52.526;13.326;2024-01-06T00:35:32;2.10;99.90
15749;DHT22;7976;52.526;13.326;2024-01-06T00:37:59;2.10;99.90
15749;DHT22;7976;52.526;13.326;2024-01-06T00:40:26;2.00;99.90
15749;DHT22;7976;52.526;13.326;2024-01-06T00:42:53;2.00;99.90
15749;DHT22;7976;52.526;13.326;2024-01-06T00:45:22;2.00;99.90
15749;DHT22;7976;52.526;13.326;2024-01-06T00:47:49;2.00;99.90
15749;DHT22;7976;52.526;13.326;2024-01-06T00:50:16;2.00;99.90
15749;DHT22;7976;52.526;13.326;2024-01-06T00:52:44;2.00;99.90
15749;DHT22;7976;52.526;13.326;2024-01-06T00:55:11;2.00;99.90
15749;DHT22;7976;52.526;13.326;2024-01-06T00:57:38;1.90;99.90
15749;DHT22;7976;52.526;13.326;2024-01-06T01:00:07;1.90;99.90
15749;DHT22;7976;52.526;13.326;2024-01-06T01:02:35;1.90;99.90
15749;DHT22;7976;52.526;13.326;2024-01-06T01:05:03;1.90;99.90
15749;DHT22;7976;52.526;13.326;2024-01-06T01:07:30;1.90;99.90
15749;DHT22;7976;52.526;13.326;2024-01-06T01:09:57;1.90;99.90
15749;DHT22;7976;52.526;13.326;2024-01-06T01:12:24;1.90;99.90
15749;DHT22;7976;52.526;13.326;2024-01-06T01:14:51;1.90;99.90
15749;DHT22;7976;52.526;13.326;2024-01-06T01:17:18;1.90;99.90
15749;DHT22;7976;52.526;13.326;2024-01-06T01:19:46;1.90;99.90
15749;DHT22;7976;52.526;13.326;2024-01-06T01:22:13;1.90;99.90
15749;DHT22;7976;52.526;13.326;2024-01-06T01:24:41;1.90;99.90
15749;DHT22;7976;52.526;13.326;2024-01-06T01:27:08;1.90;99.90
15749;DHT22;7976;52.526;13.326;2024-01-06T01:29:35;1.90;99.90
15749;DHT22;7976;52.526;13.326;2024-01-06T01:32:03;1.90;99.90
15749;DHT22;7976;52.526;13.326;2024-01-06T01:34:30;1.90;99.90
15749;DHT22;7976;52.526;13.326;2024-01-06T01:36:59;1.90;99.90
15749;DHT22;7976;52.526;13.326;2024-01-06T01:39:27;1.90;99.90
15749;DHT22;7976;52.526;13.326;2024-01-06T01:41:53;1.90;99.90
15749;DHT22;7976;52.526;13.326;2024-01-06T01:44:20;1.90;99.90
15749;DHT22;7976;52.526;13.326;2024-01-06T01:46:47;1.90;99.90
15749;DHT22;7976;52.526;13.326;2024-01-06T01:49:15;1.90;99.90
15749;DHT22;7976;52.526;13.326;2024-01-06T01:51:42;1.90;99.90
15749;DHT22;7976;52.526;13.326;2024-01-06T01:54:11;1.90;99.90
15749;DHT22;7976;52.526;13.326;2024-01-06T01:56:39;1.80;99.90
15749;DHT22;7976;52.526;13.326;2024-01-06T01:59:10;1.80;99.90
15749;DHT22;7976;52.526;13.326;2024-01-06T02:01:39;1.80;99.90
15749;DHT22;7976;52.526;13.326;2024-01-06T02:04:06;1.80;99.90
15749;DHT22;7976;52.526;13.326;2024-01-06T02:06:34;1.80;99.90
15749;DHT22;7976;52.526;13.326;2024-01-06T02:09:01;1.80;99.90
15749;DHT22;7976;52.526;13.326;2024-01-06T02:11:29;1.80;99.90
15749;DHT22;7976;52.526;13.326;2024-01-06T02:13:56;1.80;99.90
15749;DHT22;7976;52.526;13.326;2024-01-06T02:16:23;1.90;99.90
15749;DHT22;7976;52.526;13.326;2024-01-06T02:18:50;1.90;99.90
15749;DHT22;7976;52.526;13.326;2024-01-06T02:21:17;1.90;99.90
15749;DHT22;7976;52.526;13.326;2024-01-06T02:23:49;2.00;99.90
15749;DHT22;7976;52.526;13.326;2024-01-06T02:26:16;2.00;99.90
15749;DHT22;7976;52.526;13.326;2024-01-06T02:28:43;2.00;99.90
15749;DHT22;7976;52.526;13.326;2024-01-06T02:31:13;2.00;99.90
15749;DHT22;7976;52.526;13.326;2024-01-06T02:33:40;2.00;99.90
15749;DHT22;7976;52.526;13.326;2024-01-06T02:36:07;2.00;99.90
15749;DHT22;7976;52.526;13.326;2024-01-06T02:38:34;2.00;99.90
15749;DHT22;7976;52.526;13.326;2024-01-06T02:41:02;1.90;99.90
15749;DHT22;7976;52.526;13.326;2024-01-06T02:43:29;1.90;99.90
15749;DHT22;7976;52.526;13.326;2024-01-06T02:45:56;1.90;99.90
15749;DHT22;7976;52.526;13.326;2024-01-06T02:48:23;1.90;99.90
15749;DHT22;7976;52.526;13.326;2024-01-06T02:50:50;1.90;99.90
15749;DHT22;7976;52.526;13.326;2024-01-06T02:53:16;1.90;99.90
15749;DHT22;7976;52.526;13.326;2024-01-06T02:55:43;1.90;99.90
15749;DHT22;7976;52.526;13.326;2024-01-06T02:58:11;1.90;99.90
15749;DHT22;7976;52.526;13.326;2024-01-06T03:00:38;1.90;99.90
15749;DHT22;7976;52.526;13.326;2024-01-06T03:03:05;1.90;99.90
15749;DHT22;7976;52.526;13.326;2024-01-06T03:05:32;1.90;99.90
15749;DHT22;7976;52.526;13.326;2024-01-06T03:07:59;1.90;99.90
15749;DHT22;7976;52.526;13.326;2024-01-06T03:10:26;1.90;99.90
15749;DHT22;7976;52.526;13.326;2024-01-06T03:12:53;1.90;99.90
15749;DHT22;7976;52.526;13.326;2024-01-06T03:15:21;1.90;99.90
15749;DHT22;7976;52.526;13.326;2024-01-06T03:17:48;1.90;99.90
15749;DHT22;7976;52.526;13.326;2024-01-06T03:20:15;1.80;99.90
15749;DHT22;7976;52.526;13.326;2024-01-06T03:22:42;1.80;99.90
15749;DHT22;7976;52.526;13.326;2024-01-06T03:25:09;1.80;99.90
15749;DHT22;7976;52.526;13.326;2024-01-06T03:27:36;1.80;99.90
15749;DHT22;7976;52.526;13.326;2024-01-06T03:30:03;1.80;99.90
15749;DHT22;7976;52.526;13.326;2024-01-06T03:32:32;1.80;99.90
15749;DHT22;7976;52.526;13.326;2024-01-06T03:34:59;1.80;99.90
15749;DHT22;7976;52.526;13.326;2024-01-06T03:37:26;1.80;99.90
15749;DHT22;7976;52.526;13.326;2024-01-06T03:39:53;1.80;99.90
15749;DHT22;7976;52.526;13.326;2024-01-06T03:42:20;1.80;99.90
15749;DHT22;7976;52.526;13.326;2024-01-06T03:44:47;1.80;99.90
15749;DHT22;7976;52.526;13.326;2024-01-06T03:47:14;1.80;99.90
15749;DHT22;7976;52.526;13.326;2024-01-06T03:49:42;1.80;99.90
15749;DHT22;7976;52.526;13.326;2024-01-06T03:52:09;1.80;99.90
15749;DHT22;7976;52.526;13.326;2024-01-06T03:54:36;1.80;99.90
15749;DHT22;7976;52.526;13.326;2024-01-06T03:57:03;1.70;99.90
15749;DHT22;7976;52.526;13.326;2024-01-06T03:59:30;1.70;99.90
15749;DHT22;7976;52.526;13.326;2024-01-06T04:01:56;1.80;99.90
15749;DHT22;7976;52.526;13.326;2024-01-06T04:04:24;1.70;99.90
15749;DHT22;7976;52.526;13.326;2024-01-06T04:06:52;1.80;99.90
15749;DHT22;7976;52.526;13.326;2024-01-06T04:09:19;1.80;99.90
15749;DHT22;7976;52.526;13.326;2024-01-06T04:11:46;1.80;99.90
15749;DHT22;7976;52.526;13.326;2024-01-06T04:14:13;1.90;99.90
15749;DHT22;7976;52.526;13.326;2024-01-06T04:16:40;1.90;99.90
15749;DHT22;7976;52.526;13.326;2024-01-06T04:19:09;1.90;99.90
15749;DHT22;7976;52.526;13.326;2024-01-06T04:21:38;1.80;99.90
15749;DHT22;7976;52.526;13.326;2024-01-06T04:24:06;1.80;99.90
15749;DHT22;7976;52.526;13.326;2024-01-06T04:26:33;1.80;99.90
15749;DHT22;7976;52.526;13.326;2024-01-06T04:29:00;1.80;99.90
15749;DHT22;7976;52.526;13.326;2024-01-06T04:31:27;1.90;99.90
15749;DHT22;7976;52.526;13.326;2024-01-06T04:33:54;1.90;99.90
15749;DHT22;7976;52.526;13.326;2024-01-06T04:36:21;1.90;99.90
15749;DHT22;7976;52.526;13.326;2024-01-06T04:38:48;1.90;99.90
15749;DHT22;7976;52.526;13.326;2024-01-06T04:41:16;1.90;99.90
15749;DHT22;7976;52.526;13.326;2024-01-06T04:43:43;1.80;99.90
15749;DHT22;7976;52.526;13.326;2024-01-06T04:46:10;1.80;99.90
15749;DHT22;7976;52.526;13.326;2024-01-06T04:48:37;1.80;99.90
15749;DHT22;7976;52.526;13.326;2024-01-06T04:51:04;1.80;99.90
15749;DHT22;7976;52.526;13.326;2024-01-06T04:53:35;1.80;99.90
15749;DHT22;7976;52.526;13.326;2024-01-06T04:56:02;1.80;99.90
15749;DHT22;7976;52.526;13.326;2024-01-06T04:58:30;1.80;99.90
15749;DHT22;7976;52.526;13.326;2024-01-06T05:00:57;1.80;99.90
15749;DHT22;7976;52.526;13.326;2024-01-06T05:03:24;1.80;99.90
15749;DHT22;7976;52.526;13.326;2024-01-06T05:05:51;1.80;99.90
15749;DHT22;7976;52.526;13.326;2024-01-06T05:08:18;1.80;99.90
15749;DHT22;7976;52.526;13.326;2024-01-06T05:10:45;1.80;99.90
15749;DHT22;7976;52.526;13.326;2024-01-06T05:13:12;1.80;99.90
15749;DHT22;7976;52.526;13.326;2024-01-06T05:15:40;1.80;99.90
15749;DHT22;7976;52.526;13.326;2024-01-06T05:18:07;1.80;99.90
15749;DHT22;7976;52.526;13.326;2024-01-06T05:20:34;1.70;99.90
15749;DHT22;7976;52.526;13.326;2024-01-06T05:23:01;1.70;99.90
15749;DHT22;7976;52.526;13.326;2024-01-06T05:25:28;1.70;99.90
15749;DHT22;7976;52.526;13.326;2024-01-06T05:27:54;1.70;99.90
15749;DHT22;7976;52.526;13.326;2024-01-06T05:30:21;1.70;99.90
15749;DHT22;7976;52.526;13.326;2024-01-06T05:32:49;1.70;99.90
15749;DHT22;7976;52.526;13.326;2024-01-06T05:35:16;1.60;99.90
15749;DHT22;7976;52.526;13.326;2024-01-06T05:37:43;1.70;99.90
15749;DHT22;7976;52.526;13.326;2024-01-06T05:40:10;1.70;99.90
15749;DHT22;7976;52.526;13.326;2024-01-06T05:42:37;1.70;99.90
15749;DHT22;7976;52.526;13.326;2024-01-06T05:45:05;1.70;99.90
15749;DHT22;7976;52.526;13.326;2024-01-06T05:47:32;1.70;99.90
15749;DHT22;7976;52.526;13.326;2024-01-06T05:50:00;1.70;99.90
15749;DHT22;7976;52.526;13.326;2024-01-06T05:52:27;1.70;99.90
15749;DHT22;7976;52.526;13.326;2024-01-06T05:54:54;1.60;99.90
15749;DHT22;7976;52.526;13.326;2024-01-06T05:57:21;1.60;99.90
15749;DHT22;7976;52.526;13.326;2024-01-06T05:59:48;1.60;99.90
15749;DHT22;7976;52.526;13.326;2024-01-06T06:02:15;1.70;99.90
15749;DHT22;7976;52.526;13.326;2024-01-06T06:04:42;1.70;99.90
15749;DHT22;7976;52.526;13.326;2024-01-06T06:07:11;1.70;99.90
15749;DHT22;7976;52.526;13.326;2024-01-06T06:09:37;1.70;99.90
15749;DHT22;7976;52.526;13.326;2024-01-06T06:12:06;1.70;99.90
15749;DHT22;7976;52.526;13.326;2024-01-06T06:14:33;1.70;99.90
15749;DHT22;7976;52.526;13.326;2024-01-06T06:17:00;1.60;99.90
15749;DHT22;7976;52.526;13.326;2024-01-06T06:19:27;1.60;99.90
15749;DHT22;7976;52.526;13.326;2024-01-06T06:21:54;1.60;99.90
15749;DHT22;7976;52.526;13.326;2024-01-06T06:24:22;1.60;99.90
15749;DHT22;7976;52.526;13.326;2024-01-06T06:26:49;1.60;99.90
15749;DHT22;7976;52.526;13.326;2024-01-06T06:29:16;1.50;99.90
15749;DHT22;7976;52.526;13.326;2024-01-06T06:31:43;1.50;99.90
15749;DHT22;7976;52.526;13.326;2024-01-06T06:34:12;1.50;99.90
15749;DHT22;7976;52.526;13.326;2024-01-06T06:36:38;1.50;99.90
15749;DHT22;7976;52.526;13.326;2024-01-06T06:39:05;1.40;99.90
15749;DHT22;7976;52.526;13.326;2024-01-06T06:41:33;1.40;99.90
15749;DHT22;7976;52.526;13.326;2024-01-06T06:44:00;1.40;99.90
15749;DHT22;7976;52.526;13.326;2024-01-06T06:46:27;1.40;99.90
15749;DHT22;7976;52.526;13.326;2024-01-06T06:48:54;1.40;99.90
15749;DHT22;7976;52.526;13.326;2024-01-06T06:51:21;1.40;99.90
15749;DHT22;7976;52.526;13.326;2024-01-06T06:53:50;1.40;99.90
15749;DHT22;7976;52.526;13.326;2024-01-06T06:56:17;1.40;99.90
15749;DHT22;7976;52.526;13.326;2024-01-06T06:58:45;1.40;99.90
15749;DHT22;7976;52.526;13.326;2024-01-06T07:01:13;1.40;99.90
15749;DHT22;7976;52.526;13.326;2024-01-06T07:03:40;1.40;99.90
15749;DHT22;7976;52.526;13.326;2024-01-06T07:06:07;1.40;99.90
15749;DHT22;7976;52.526;13.326;2024-01-06T07:08:34;1.40;99.90
15749;DHT22;7976;52.526;13.326;2024-01-06T07:11:01;1.40;99.90
15749;DHT22;7976;52.526;13.326;2024-01-06T07:13:28;1.40;99.90
15749;DHT22;7976;52.526;13.326;2024-01-06T07:15:56;1.40;99.90
15749;DHT22;7976;52.526;13.326;2024-01-06T07:18:23;1.40;99.90
15749;DHT22;7976;52.526;13.326;2024-01-06T07:20:50;1.40;99.90
15749;DHT22;7976;52.526;13.326;2024-01-06T07:23:17;1.40;99.90
15749;DHT22;7976;52.526;13.326;2024-01-06T07:25:44;1.30;99.90
15749;DHT22;7976;52.526;13.326;2024-01-06T07:28:11;1.30;99.90
15749;DHT22;7976;52.526;13.326;2024-01-06T07:30:38;1.30;99.90
15749;DHT22;7976;52.526;13.326;2024-01-06T07:33:06;1.30;99.90
15749;DHT22;7976;52.526;13.326;2024-01-06T07:35:34;1.20;99.90
15749;DHT22;7976;52.526;13.326;2024-01-06T07:38:00;1.20;99.90
15749;DHT22;7976;52.526;13.326;2024-01-06T07:40:27;1.20;99.90
15749;DHT22;7976;52.526;13.326;2024-01-06T07:42:54;1.20;99.90
15749;DHT22;7976;52.526;13.326;2024-01-06T07:45:21;1.20;99.90
15749;DHT22;7976;52.526;13.326;2024-01-06T07:47:48;1.20;99.90
15749;DHT22;7976;52.526;13.326;2024-01-06T07:50:16;1.10;99.90
15749;DHT22;7976;52.526;13.326;2024-01-06T07:52:43;1.10;99.90
15749;DHT22;7976;52.526;13.326;2024-01-06T07:55:10;1.10;99.90
15749;DHT22;7976;52.526;13.326;2024-01-06T07:57:37;1.10;99.90
15749;DHT22;7976;52.526;13.326;2024-01-06T08:00:05;1.10;99.90
15749;DHT22;7976;52.526;13.326;2024-01-06T08:02:38;1.10;99.90
15749;DHT22;7976;52.526;13.326;2024-01-06T08:05:04;1.00;99.90
15749;DHT22;7976;52.526;13.326;2024-01-06T08:07:33;1.00;99.90
15749;DHT22;7976;52.526;13.326;2024-01-06T08:10:00;1.00;99.90
15749;DHT22;7976;52.526;13.326;2024-01-06T08:12:30;1.00;99.90
15749;DHT22;7976;52.526;13.326;2024-01-06T08:14:57;1.00;99.90
15749;DHT22;7976;52.526;13.326;2024-01-06T08:17:24;1.00;99.90
15749;DHT22;7976;52.526;13.326;2024-01-06T08:19:51;0.90;99.90
15749;DHT22;7976;52.526;13.326;2024-01-06T08:22:18;0.90;99.90
15749;DHT22;7976;52.526;13.326;2024-01-06T08:24:46;0.90;99.90
15749;DHT22;7976;52.526;13.326;2024-01-06T08:27:12;1.00;99.90
15749;DHT22;7976;52.526;13.326;2024-01-06T08:29:39;1.00;99.90
15749;DHT22;7976;52.526;13.326;2024-01-06T08:32:07;0.90;99.90
15749;DHT22;7976;52.526;13.326;2024-01-06T08:34:33;0.90;99.90
15749;DHT22;7976;52.526;13.326;2024-01-06T08:37:01;0.90;99.90
15749;DHT22;7976;52.526;13.326;2024-01-06T08:39:29;0.90;99.90
15749;DHT22;7976;52.526;13.326;2024-01-06T08:41:57;0.90;99.90
15749;DHT22;7976;52.526;13.326;2024-01-06T08:44:24;1.00;99.90
15749;DHT22;7976;52.526;13.326;2024-01-06T08:46:51;1.00;99.90
15749;DHT22;7976;52.526;13.326;2024-01-06T08:49:17;0.90;99.90
15749;DHT22;7976;52.526;13.326;2024-01-06T08:51:44;0.90;99.90
15749;DHT22;7976;52.526;13.326;2024-01-06T08:54:11;0.90;99.90
15749;DHT22;7976;52.526;13.326;2024-01-06T08:56:38;1.00;99.90
15749;DHT22;7976;52.526;13.326;2024-01-06T08:59:07;1.00;99.90
15749;DHT22;7976;52.526;13.326;2024-01-06T09:01:34;1.00;99.90
15749;DHT22;7976;52.526;13.326;2024-01-06T09:04:02;1.00;99.90
15749;DHT22;7976;52.526;13.326;2024-01-06T09:06:30;1.00;99.90
15749;DHT22;7976;52.526;13.326;2024-01-06T09:08:56;1.00;99.90
15749;DHT22;7976;52.526;13.326;2024-01-06T09:11:23;1.10;99.90
15749;DHT22;7976;52.526;13.326;2024-01-06T09:13:50;1.10;99.90
15749;DHT22;7976;52.526;13.326;2024-01-06T09:16:19;1.10;99.90
15749;DHT22;7976;52.526;13.326;2024-01-06T09:18:46;1.10;99.90
15749;DHT22;7976;52.526;13.326;2024-01-06T09:21:13;1.10;99.90
15749;DHT22;7976;52.526;13.326;2024-01-06T09:23:40;1.00;99.90
15749;DHT22;7976;52.526;13.326;2024-01-06T09:26:07;1.00;99.90
15749;DHT22;7976;52.526;13.326;2024-01-06T09:28:33;1.00;99.90
15749;DHT22;7976;52.526;13.326;2024-01-06T09:31:00;1.00;99.90
15749;DHT22;7976;52.526;13.326;2024-01-06T09:33:28;1.10;99.90
15749;DHT22;7976;52.526;13.326;2024-01-06T09:35:55;1.10;99.90
15749;DHT22;7976;52.526;13.326;2024-01-06T09:38:23;1.10;99.90
15749;DHT22;7976;52.526;13.326;2024-01-06T09:40:49;1.10;99.90
15749;DHT22;7976;52.526;13.326;2024-01-06T09:43:17;1.10;99.90
15749;DHT22;7976;52.526;13.326;2024-01-06T09:45:48;1.00;99.90
15749;DHT22;7976;52.526;13.326;2024-01-06T09:48:27;1.00;99.90
15749;DHT22;7976;52.526;13.326;2024-01-06T09:51:02;1.00;99.90
15749;DHT22;7976;52.526;13.326;2024-01-06T09:53:34;1.10;99.90
15749;DHT22;7976;52.526;13.326;2024-01-06T09:56:09;1.10;99.90
15749;DHT22;7976;52.526;13.326;2024-01-06T09:58:38;1.10;99.90
15749;DHT22;7976;52.526;13.326;2024-01-06T10:01:06;1.10;99.90
15749;DHT22;7976;52.526;13.326;2024-01-06T10:03:37;1.10;99.90
15749;DHT22;7976;52.526;13.326;2024-01-06T10:06:05;1.10;99.90
15749;DHT22;7976;52.526;13.326;2024-01-06T10:08:32;1.10;99.90
15749;DHT22;7976;52.526;13.326;2024-01-06T10:11:01;1.10;99.90
15749;DHT22;7976;52.526;13.326;2024-01-06T10:13:28;1.10;99.90
15749;DHT22;7976;52.526;13.326;2024-01-06T10:15:55;1.10;99.90
15749;DHT22;7976;52.526;13.326;2024-01-06T10:18:24;1.00;99.90
15749;DHT22;7976;52.526;13.326;2024-01-06T10:20:52;1.00;99.90
15749;DHT22;7976;52.526;13.326;2024-01-06T10:23:22;1.00;99.90
15749;DHT22;7976;52.526;13.326;2024-01-06T10:25:52;1.00;99.90
15749;DHT22;7976;52.526;13.326;2024-01-06T10:28:21;1.00;99.90
15749;DHT22;7976;52.526;13.326;2024-01-06T10:30:49;1.00;99.90
15749;DHT22;7976;52.526;13.326;2024-01-06T10:33:19;1.00;99.90
15749;DHT22;7976;52.526;13.326;2024-01-06T10:35:46;0.90;99.90
15749;DHT22;7976;52.526;13.326;2024-01-06T10:38:15;1.00;99.90
15749;DHT22;7976;52.526;13.326;2024-01-06T10:40:56;0.90;99.90
15749;DHT22;7976;52.526;13.326;2024-01-06T10:43:25;0.90;99.90
15749;DHT22;7976;52.526;13.326;2024-01-06T10:45:57;1.00;99.90
15749;DHT22;7976;52.526;13.326;2024-01-06T10:48:30;1.00;99.90
15749;DHT22;7976;52.526;13.326;2024-01-06T10:50:59;1.10;99.90
15749;DHT22;7976;52.526;13.326;2024-01-06T10:53:29;1.10;99.90
15749;DHT22;7976;52.526;13.326;2024-01-06T10:55:57;1.10;99.90
15749;DHT22;7976;52.526;13.326;2024-01-06T10:58:26;1.10;99.90
15749;DHT22;7976;52.526;13.326;2024-01-06T11:00:56;1.00;99.90
15749;DHT22;7976;52.526;13.326;2024-01-06T11:03:24;1.00;99.90
15749;DHT22;7976;52.526;13.326;2024-01-06T11:05:51;1.00;99.90
15749;DHT22;7976;52.526;13.326;2024-01-06T11:08:18;1.00;99.90
15749;DHT22;7976;52.526;13.326;2024-01-06T11:10:47;1.00;99.90
15749;DHT22;7976;52.526;13.326;2024-01-06T11:13:16;1.00;99.90
15749;DHT22;7976;52.526;13.326;2024-01-06T11:15:49;0.90;99.90
15749;DHT22;7976;52.526;13.326;2024-01-06T11:18:31;0.90;99.90
15749;DHT22;7976;52.526;13.326;2024-01-06T11:21:15;0.90;99.90
15749;DHT22;7976;52.526;13.326;2024-01-06T11:24:14;0.90;99.90
15749;DHT22;7976;52.526;13.326;2024-01-06T11:26:50;0.90;99.90
15749;DHT22;7976;52.526;13.326;2024-01-06T11:29:19;0.90;99.90
15749;DHT22;7976;52.526;13.326;2024-01-06T11:34:51;0.90;99.90
15749;DHT22;7976;52.526;13.326;2024-01-06T11:37:24;0.90;99.90
15749;DHT22;7976;52.526;13.326;2024-01-06T11:39:52;0.90;99.90
15749;DHT22;7976;52.526;13.326;2024-01-06T11:42:21;0.90;99.90
15749;DHT22;7976;52.526;13.326;2024-01-06T11:44:51;0.90;99.90
15749;DHT22;7976;52.526;13.326;2024-01-06T11:47:18;0.90;99.90
15749;DHT22;7976;52.526;13.326;2024-01-06T11:49:54;0.90;99.90
15749;DHT22;7976;52.526;13.326;2024-01-06T11:52:22;0.90;99.90
15749;DHT22;7976;52.526;13.326;2024-01-06T11:54:52;0.90;99.90
15749;DHT22;7976;52.526;13.326;2024-01-06T11:57:22;0.90;99.90
15749;DHT22;7976;52.526;13.326;2024-01-06T11:59:48;0.90;99.90
15749;DHT22;7976;52.526;13.326;2024-01-06T12:02:18;0.90;99.90
15749;DHT22;7976;52.526;13.326;2024-01-06T12:04:48;0.90;99.90
15749;DHT22;7976;52.526;13.326;2024-01-06T12:07:17;0.80;99.90
15749;DHT22;7976;52.526;13.326;2024-01-06T12:09:45;0.80;99.90
15749;DHT22;7976;52.526;13.326;2024-01-06T12:12:15;0.80;99.90
15749;DHT22;7976;52.526;13.326;2024-01-06T12:14:44;0.90;99.90
15749;DHT22;7976;52.526;13.326;2024-01-06T12:17:12;0.90;99.90
15749;DHT22;7976;52.526;13.326;2024-01-06T12:19:40;0.80;99.90
15749;DHT22;7976;52.526;13.326;2024-01-06T12:22:10;0.80;99.90
15749;DHT22;7976;52.526;13.326;2024-01-06T12:24:39;0.80;99.90
15749;DHT22;7976;52.526;13.326;2024-01-06T12:27:07;0.80;99.90
15749;DHT22;7976;52.526;13.326;2024-01-06T12:29:37;0.80;99.90
15749;DHT22;7976;52.526;13.326;2024-01-06T12:32:07;0.80;99.90
15749;DHT22;7976;52.526;13.326;2024-01-06T12:34:35;0.80;99.90
15749;DHT22;7976;52.526;13.326;2024-01-06T12:37:03;0.80;99.90
15749;DHT22;7976;52.526;13.326;2024-01-06T12:39:30;0.80;99.90
15749;DHT22;7976;52.526;13.326;2024-01-06T12:41:58;0.80;99.90
15749;DHT22;7976;52.526;13.326;2024-01-06T12:44:25;0.80;99.90
15749;DHT22;7976;52.526;13.326;2024-01-06T12:46:52;0.80;99.90
15749;DHT22;7976;52.526;13.326;2024-01-06T12:49:21;0.80;99.90
15749;DHT22;7976;52.526;13.326;2024-01-06T12:51:48;0.80;99.90
15749;DHT22;7976;52.526;13.326;2024-01-06T12:54:16;0.80;99.90
15749;DHT22;7976;52.526;13.326;2024-01-06T12:56:43;0.80;99.90
15749;DHT22;7976;52.526;13.326;2024-01-06T12:59:10;0.80;99.90
15749;DHT22;7976;52.526;13.326;2024-01-06T13:01:38;0.80;99.90
15749;DHT22;7976;52.526;13.326;2024-01-06T13:04:05;0.70;99.90
15749;DHT22;7976;52.526;13.326;2024-01-06T13:06:33;0.70;99.90
15749;DHT22;7976;52.526;13.326;2024-01-06T13:09:01;0.70;99.90
15749;DHT22;7976;52.526;13.326;2024-01-06T13:11:32;0.80;99.90
15749;DHT22;7976;52.526;13.326;2024-01-06T13:13:59;0.70;99.90
15749;DHT22;7976;52.526;13.326;2024-01-06T13:16:27;0.70;99.90
15749;DHT22;7976;52.526;13.326;2024-01-06T13:18:53;0.70;99.90
15749;DHT22;7976;52.526;13.326;2024-01-06T13:21:20;0.70;99.90
15749;DHT22;7976;52.526;13.326;2024-01-06T13:23:48;0.70;99.90
15749;DHT22;7976;52.526;13.326;2024-01-06T13:26:15;0.60;99.90
15749;DHT22;7976;52.526;13.326;2024-01-06T13:28:42;0.70;99.90
15749;DHT22;7976;52.526;13.326;2024-01-06T13:31:09;0.70;99.90
15749;DHT22;7976;52.526;13.326;2024-01-06T13:33:35;0.70;99.90
15749;DHT22;7976;52.526;13.326;2024-01-06T13:36:03;0.60;99.90
15749;DHT22;7976;52.526;13.326;2024-01-06T13:38:30;0.70;99.90
15749;DHT22;7976;52.526;13.326;2024-01-06T13:40:58;0.60;99.90
15749;DHT22;7976;52.526;13.326;2024-01-06T13:43:25;0.60;99.90
15749;DHT22;7976;52.526;13.326;2024-01-06T13:45:52;0.60;99.90
15749;DHT22;7976;52.526;13.326;2024-01-06T13:48:19;0.70;99.90
15749;DHT22;7976;52.526;13.326;2024-01-06T13:50:45;0.70;99.90
15749;DHT22;7976;52.526;13.326;2024-01-06T13:53:13;0.70;99.90
15749;DHT22;7976;52.526;13.326;2024-01-06T13:55:41;0.80;99.90
15749;DHT22;7976;52.526;13.326;2024-01-06T13:58:09;0.80;99.90
15749;DHT22;7976;52.526;13.326;2024-01-06T14:00:37;0.80;99.90
15749;DHT22;7976;52.526;13.326;2024-01-06T14:03:05;0.80;99.90
15749;DHT22;7976;52.526;13.326;2024-01-06T14:05:34;0.80;99.90
15749;DHT22;7976;52.526;13.326;2024-01-06T14:08:03;0.70;99.90
15749;DHT22;7976;52.526;13.326;2024-01-06T14:10:31;0.70;99.90
15749;DHT22;7976;52.526;13.326;2024-01-06T14:12:58;0.70;99.90
15749;DHT22;7976;52.526;13.326;2024-01-06T14:15:28;0.60;99.90
15749;DHT22;7976;52.526;13.326;2024-01-06T14:18:00;0.60;99.90
15749;DHT22;7976;52.526;13.326;2024-01-06T14:20:28;0.60;99.90
15749;DHT22;7976;52.526;13.326;2024-01-06T14:23:01;0.50;99.90
15749;DHT22;7976;52.526;13.326;2024-01-06T14:25:29;0.60;99.90
15749;DHT22;7976;52.526;13.326;2024-01-06T14:27:56;0.60;99.90
15749;DHT22;7976;52.526;13.326;2024-01-06T14:30:24;0.60;99.90
15749;DHT22;7976;52.526;13.326;2024-01-06T14:32:54;0.70;99.90
15749;DHT22;7976;52.526;13.326;2024-01-06T14:35:21;0.70;99.90
15749;DHT22;7976;52.526;13.326;2024-01-06T14:37:48;0.70;99.90
15749;DHT22;7976;52.526;13.326;2024-01-06T14:40:19;0.70;99.90
15749;DHT22;7976;52.526;13.326;2024-01-06T14:42:46;0.70;99.90
15749;DHT22;7976;52.526;13.326;2024-01-06T14:45:16;0.60;99.90
15749;DHT22;7976;52.526;13.326;2024-01-06T14:47:46;0.60;99.90
15749;DHT22;7976;52.526;13.326;2024-01-06T14:50:14;0.60;99.90
15749;DHT22;7976;52.526;13.326;2024-01-06T14:52:42;0.60;99.90
15749;DHT22;7976;52.526;13.326;2024-01-06T14:55:10;0.60;99.90
15749;DHT22;7976;52.526;13.326;2024-01-06T14:57:39;0.60;99.90
15749;DHT22;7976;52.526;13.326;2024-01-06T15:00:08;0.70;99.90
15749;DHT22;7976;52.526;13.326;2024-01-06T15:02:36;0.70;99.90
15749;DHT22;7976;52.526;13.326;2024-01-06T15:05:06;0.70;99.90
15749;DHT22;7976;52.526;13.326;2024-01-06T15:07:36;0.70;99.90
15749;DHT22;7976;52.526;13.326;2024-01-06T15:10:04;0.70;99.90
15749;DHT22;7976;52.526;13.326;2024-01-06T15:12:36;0.70;99.90
15749;DHT22;7976;52.526;13.326;2024-01-06T15:15:04;0.70;99.90
15749;DHT22;7976;52.526;13.326;2024-01-06T15:17:33;0.70;99.90
15749;DHT22;7976;52.526;13.326;2024-01-06T15:20:00;0.70;99.90
15749;DHT22;7976;52.526;13.326;2024-01-06T15:22:29;0.70;99.90
15749;DHT22;7976;52.526;13.326;2024-01-06T15:24:55;0.70;99.90
15749;DHT22;7976;52.526;13.326;2024-01-06T15:27:22;0.70;99.90
15749;DHT22;7976;52.526;13.326;2024-01-06T15:29:49;0.70;99.90
15749;DHT22;7976;52.526;13.326;2024-01-06T15:32:16;0.70;99.90
15749;DHT22;7976;52.526;13.326;2024-01-06T15:34:43;0.70;99.90
15749;DHT22;7976;52.526;13.326;2024-01-06T15:37:10;0.70;99.90
15749;DHT22;7976;52.526;13.326;2024-01-06T15:39:38;0.60;99.90
15749;DHT22;7976;52.526;13.326;2024-01-06T15:42:05;0.60;99.90
15749;DHT22;7976;52.526;13.326;2024-01-06T15:44:32;0.60;99.90
15749;DHT22;7976;52.526;13.326;2024-01-06T15:46:59;0.60;99.90
15749;DHT22;7976;52.526;13.326;2024-01-06T15:49:26;0.70;99.90
15749;DHT22;7976;52.526;13.326;2024-01-06T15:51:53;0.70;99.90